Kezdőlap
METAR-TAF:

METAR-TAF

Repülőterek :

Silvio Pettirossi nemzetközi repülőtér

Asunción, Paraguay

földrajzi szélesség: 25-16S, földrajzi hosszúság: 057-38W, magasság: 101 m

Jelenlegi meteorológiai megfigyelések

A jelentés 59 perccel ezelõtt készült, 06:00 UTC
Délnyugati szél 4 kt
Hőmérséklet 6°C
Páratartalom 93%
Légköri nyomás 1026 hPa
Látótávolság 10 km, vagy több
felhőtlen 1500 m magasságban, és nincs gomolyfelhõ

METAR: SGAS 280600Z 22004KT CAVOK 06/05 Q1026

Idő: 02:59 (06:59 UTC)

Előrejelzés

A jelentés 2 órával és 9 perccel ezelõtt készült, 04:50 UTC
Az előrejelzés 28-én 06 óra UTC és 29-én 06 óra UTC között érvényes
Délnyugati szél 9 kt
Látótávolság 10 km, vagy több
felhőtlen 1500 m magasságban, és nincs gomolyfelhõ

TAF: SGAS 280450Z 2806/2906 23009KT CAVOK TX15/2818Z TN06/2809Z

Meteorológiai megfigyelések és előrejelzések több, mint 4000 repülőtéren (METAR és TAF jelentéseket).

A térképen piros és sárga pontok jelzik az elérhető meteorológiai állomásokat.

Mozgassa az egeret a pont fölött, hogy megjelenjen az állomás neve.

Azután kattintson az időjárási megfigyelések és előrejelzések megtekintéséhez.

A térkép megváltoztatása: kattintson a fekete keresztel jelölt zöld gombra ráközelítéshez, a vonallal jelölt zöld gombra távolításhoz, vagy a zöld nyilakra a szomszédos térképek eléréséhez.


METAR-TAF: